sensor_id;sensor_type;location;lat;lon;timestamp;temperature;humidity
74376;HTU21D;62812;55.188;61.302;2023-04-25T00:01:49;13.23;36.62
74376;HTU21D;62812;55.188;61.302;2023-04-25T00:04:17;13.22;36.77
74376;HTU21D;62812;55.188;61.302;2023-04-25T00:06:44;13.19;36.68
74376;HTU21D;62812;55.188;61.302;2023-04-25T00:09:11;13.14;36.34
74376;HTU21D;62812;55.188;61.302;2023-04-25T00:11:38;13.08;37.29
74376;HTU21D;62812;55.188;61.302;2023-04-25T00:14:05;13.02;36.97
74376;HTU21D;62812;55.188;61.302;2023-04-25T00:16:33;12.99;37.72
74376;HTU21D;62812;55.188;61.302;2023-04-25T00:19:06;12.93;37.57
74376;HTU21D;62812;55.188;61.302;2023-04-25T00:21:34;12.87;38.20
74376;HTU21D;62812;55.188;61.302;2023-04-25T00:24:01;12.89;39.17
74376;HTU21D;62812;55.188;61.302;2023-04-25T00:26:28;12.90;39.81
74376;HTU21D;62812;55.188;61.302;2023-04-25T00:28:56;12.87;40.03
74376;HTU21D;62812;55.188;61.302;2023-04-25T00:31:23;12.81;40.43
74376;HTU21D;62812;55.188;61.302;2023-04-25T00:33:50;12.75;41.58
74376;HTU21D;62812;55.188;61.302;2023-04-25T00:36:18;12.63;41.10
74376;HTU21D;62812;55.188;61.302;2023-04-25T00:38:45;12.53;41.59
74376;HTU21D;62812;55.188;61.302;2023-04-25T00:41:12;12.47;41.14
74376;HTU21D;62812;55.188;61.302;2023-04-25T00:43:39;12.45;40.89
74376;HTU21D;62812;55.188;61.302;2023-04-25T00:46:07;12.47;40.14
74376;HTU21D;62812;55.188;61.302;2023-04-25T00:48:34;12.56;40.26
74376;HTU21D;62812;55.188;61.302;2023-04-25T00:51:01;12.65;39.29
74376;HTU21D;62812;55.188;61.302;2023-04-25T00:53:30;12.79;38.62
74376;HTU21D;62812;55.188;61.302;2023-04-25T00:55:58;12.97;38.15
74376;HTU21D;62812;55.188;61.302;2023-04-25T00:58:25;13.08;37.53
74376;HTU21D;62812;55.188;61.302;2023-04-25T01:00:52;13.30;37.51
74376;HTU21D;62812;55.188;61.302;2023-04-25T01:03:19;13.45;37.10
74376;HTU21D;62812;55.188;61.302;2023-04-25T01:05:47;13.61;36.04
74376;HTU21D;62812;55.188;61.302;2023-04-25T01:08:14;13.82;35.50
74376;HTU21D;62812;55.188;61.302;2023-04-25T01:10:42;14.06;35.48
74376;HTU21D;62812;55.188;61.302;2023-04-25T01:13:09;14.18;35.06
74376;HTU21D;62812;55.188;61.302;2023-04-25T01:15:36;14.28;34.40
74376;HTU21D;62812;55.188;61.302;2023-04-25T01:18:04;14.63;33.80
74376;HTU21D;62812;55.188;61.302;2023-04-25T01:20:32;14.69;33.98
74376;HTU21D;62812;55.188;61.302;2023-04-25T01:23:00;14.94;33.87
74376;HTU21D;62812;55.188;61.302;2023-04-25T01:25:28;15.30;32.98
74376;HTU21D;62812;55.188;61.302;2023-04-25T01:27:55;15.69;31.99
74376;HTU21D;62812;55.188;61.302;2023-04-25T01:30:22;15.82;33.11
74376;HTU21D;62812;55.188;61.302;2023-04-25T01:32:49;16.05;31.95
74376;HTU21D;62812;55.188;61.302;2023-04-25T01:35:16;16.35;32.01
74376;HTU21D;62812;55.188;61.302;2023-04-25T01:37:43;16.40;31.25
74376;HTU21D;62812;55.188;61.302;2023-04-25T01:40:12;16.51;30.89
74376;HTU21D;62812;55.188;61.302;2023-04-25T01:42:42;16.80;30.51
74376;HTU21D;62812;55.188;61.302;2023-04-25T01:45:10;16.90;29.74
74376;HTU21D;62812;55.188;61.302;2023-04-25T01:47:39;17.29;30.07
74376;HTU21D;62812;55.188;61.302;2023-04-25T01:50:08;17.41;29.31
74376;HTU21D;62812;55.188;61.302;2023-04-25T01:52:35;17.49;29.90
74376;HTU21D;62812;55.188;61.302;2023-04-25T01:55:04;17.81;28.53
74376;HTU21D;62812;55.188;61.302;2023-04-25T01:57:35;18.10;28.20
74376;HTU21D;62812;55.188;61.302;2023-04-25T02:00:07;18.35;27.68
74376;HTU21D;62812;55.188;61.302;2023-04-25T02:02:36;18.62;27.98
74376;HTU21D;62812;55.188;61.302;2023-04-25T02:05:04;18.76;26.99
74376;HTU21D;62812;55.188;61.302;2023-04-25T02:07:32;18.97;26.68
74376;HTU21D;62812;55.188;61.302;2023-04-25T02:10:00;19.23;26.06
74376;HTU21D;62812;55.188;61.302;2023-04-25T02:12:27;19.33;25.93
74376;HTU21D;62812;55.188;61.302;2023-04-25T02:14:57;19.47;25.99
74376;HTU21D;62812;55.188;61.302;2023-04-25T02:17:24;19.58;25.27
74376;HTU21D;62812;55.188;61.302;2023-04-25T02:19:51;19.65;25.40
74376;HTU21D;62812;55.188;61.302;2023-04-25T02:22:18;19.96;24.70
74376;HTU21D;62812;55.188;61.302;2023-04-25T02:24:47;20.36;24.62
74376;HTU21D;62812;55.188;61.302;2023-04-25T02:27:16;20.71;24.56
74376;HTU21D;62812;55.188;61.302;2023-04-25T02:29:46;21.01;23.08
74376;HTU21D;62812;55.188;61.302;2023-04-25T02:32:24;21.09;22.85
74376;HTU21D;62812;55.188;61.302;2023-04-25T02:35:00;20.96;22.69
74376;HTU21D;62812;55.188;61.302;2023-04-25T02:37:30;20.93;23.01
74376;HTU21D;62812;55.188;61.302;2023-04-25T02:39:59;20.84;22.97
74376;HTU21D;62812;55.188;61.302;2023-04-25T02:42:31;21.06;22.80
74376;HTU21D;62812;55.188;61.302;2023-04-25T02:45:03;21.20;22.49
74376;HTU21D;62812;55.188;61.302;2023-04-25T03:38:53;28.30;18.52
74376;HTU21D;62812;55.188;61.302;2023-04-25T03:41:22;27.24;15.07
74376;HTU21D;62812;55.188;61.302;2023-04-25T03:43:54;26.12;16.03
74376;HTU21D;62812;55.188;61.302;2023-04-25T03:46:28;26.69;21.68
74376;HTU21D;62812;55.188;61.302;2023-04-25T03:52:08;30.09;15.60
74376;HTU21D;62812;55.188;61.302;2023-04-25T03:54:39;30.76;14.48
74376;HTU21D;62812;55.188;61.302;2023-04-25T03:57:09;31.23;13.77
74376;HTU21D;62812;55.188;61.302;2023-04-25T03:59:37;30.99;13.94
74376;HTU21D;62812;55.188;61.302;2023-04-25T04:02:20;31.66;13.23
74376;HTU21D;62812;55.188;61.302;2023-04-25T04:04:48;32.16;12.86
74376;HTU21D;62812;55.188;61.302;2023-04-25T04:07:26;32.05;12.98
74376;HTU21D;62812;55.188;61.302;2023-04-25T04:10:08;32.28;12.30
74376;HTU21D;62812;55.188;61.302;2023-04-25T04:12:38;32.42;11.91
74376;HTU21D;62812;55.188;61.302;2023-04-25T04:15:10;32.38;11.72
74376;HTU21D;62812;55.188;61.302;2023-04-25T04:17:38;32.45;11.46
74376;HTU21D;62812;55.188;61.302;2023-04-25T04:20:06;32.53;11.11
74376;HTU21D;62812;55.188;61.302;2023-04-25T04:22:35;32.43;11.17
74376;HTU21D;62812;55.188;61.302;2023-04-25T04:25:10;32.62;10.93
74376;HTU21D;62812;55.188;61.302;2023-04-25T04:27:42;32.61;10.98
74376;HTU21D;62812;55.188;61.302;2023-04-25T04:30:27;32.81;10.80
74376;HTU21D;62812;55.188;61.302;2023-04-25T05:18:48;31.41;9.98
74376;HTU21D;62812;55.188;61.302;2023-04-25T05:24:14;31.36;10.14
74376;HTU21D;62812;55.188;61.302;2023-04-25T05:32:55;31.14;10.28
74376;HTU21D;62812;55.188;61.302;2023-04-25T06:50:35;24.62;15.87
74376;HTU21D;62812;55.188;61.302;2023-04-25T06:56:04;24.88;15.93
74376;HTU21D;62812;55.188;61.302;2023-04-25T07:04:52;24.97;16.17
74376;HTU21D;62812;55.188;61.302;2023-04-25T07:10:26;25.09;15.58
74376;HTU21D;62812;55.188;61.302;2023-04-25T07:20:26;25.58;15.53
74376;HTU21D;62812;55.188;61.302;2023-04-25T07:23:21;25.90;15.03
74376;HTU21D;62812;55.188;61.302;2023-04-25T07:35:34;26.13;14.61
74376;HTU21D;62812;55.188;61.302;2023-04-25T07:38:26;25.66;16.83
74376;HTU21D;62812;55.188;61.302;2023-04-25T08:23:56;24.49;19.11
74376;HTU21D;62812;55.188;61.302;2023-04-25T08:33:25;25.10;15.88
74376;HTU21D;62812;55.188;61.302;2023-04-25T08:49:14;24.83;19.79
74376;HTU21D;62812;55.188;61.302;2023-04-25T08:51:46;24.76;16.51
74376;HTU21D;62812;55.188;61.302;2023-04-25T09:48:31;24.92;14.54
74376;HTU21D;62812;55.188;61.302;2023-04-25T09:54:16;25.80;21.31
74376;HTU21D;62812;55.188;61.302;2023-04-25T09:56:57;26.65;17.67
74376;HTU21D;62812;55.188;61.302;2023-04-25T09:59:26;27.25;15.13
74376;HTU21D;62812;55.188;61.302;2023-04-25T10:01:57;27.46;14.90
74376;HTU21D;62812;55.188;61.302;2023-04-25T10:04:30;27.76;13.85
74376;HTU21D;62812;55.188;61.302;2023-04-25T10:07:26;27.84;13.16
74376;HTU21D;62812;55.188;61.302;2023-04-25T10:10:02;27.85;13.39
74376;HTU21D;62812;55.188;61.302;2023-04-25T10:12:31;27.83;12.88
74376;HTU21D;62812;55.188;61.302;2023-04-25T10:15:00;27.85;13.35
74376;HTU21D;62812;55.188;61.302;2023-04-25T10:17:31;28.14;12.56
74376;HTU21D;62812;55.188;61.302;2023-04-25T10:20:02;28.38;11.95
74376;HTU21D;62812;55.188;61.302;2023-04-25T10:22:43;28.44;11.77
74376;HTU21D;62812;55.188;61.302;2023-04-25T10:28:18;28.55;10.96
74376;HTU21D;62812;55.188;61.302;2023-04-25T10:30:59;28.61;10.89
74376;HTU21D;62812;55.188;61.302;2023-04-25T10:33:33;28.58;11.04
74376;HTU21D;62812;55.188;61.302;2023-04-25T10:51:58;28.76;11.17
74376;HTU21D;62812;55.188;61.302;2023-04-25T11:00:17;28.90;10.58
74376;HTU21D;62812;55.188;61.302;2023-04-25T11:03:15;29.00;10.44
74376;HTU21D;62812;55.188;61.302;2023-04-25T11:05:45;29.04;10.43
74376;HTU21D;62812;55.188;61.302;2023-04-25T11:12:58;28.97;10.52
74376;HTU21D;62812;55.188;61.302;2023-04-25T11:19:07;27.79;11.86
74376;HTU21D;62812;55.188;61.302;2023-04-25T11:21:34;27.84;12.21
74376;HTU21D;62812;55.188;61.302;2023-04-25T11:24:05;28.44;11.40
74376;HTU21D;62812;55.188;61.302;2023-04-25T11:26:36;28.72;10.82
74376;HTU21D;62812;55.188;61.302;2023-04-25T11:29:06;28.84;10.66
74376;HTU21D;62812;55.188;61.302;2023-04-25T11:50:28;29.12;9.91
74376;HTU21D;62812;55.188;61.302;2023-04-25T11:52:58;29.15;9.92
74376;HTU21D;62812;55.188;61.302;2023-04-25T11:55:26;29.16;10.00
74376;HTU21D;62812;55.188;61.302;2023-04-25T11:58:00;29.13;10.02
74376;HTU21D;62812;55.188;61.302;2023-04-25T12:16:56;29.06;10.12
74376;HTU21D;62812;55.188;61.302;2023-04-25T12:19:33;28.88;10.76
74376;HTU21D;62812;55.188;61.302;2023-04-25T12:22:03;28.97;11.52
74376;HTU21D;62812;55.188;61.302;2023-04-25T12:24:37;28.98;12.34
74376;HTU21D;62812;55.188;61.302;2023-04-25T12:27:30;28.91;12.49
74376;HTU21D;62812;55.188;61.302;2023-04-25T14:10:19;28.39;15.00
74376;HTU21D;62812;55.188;61.302;2023-04-25T14:16:01;27.94;15.58
74376;HTU21D;62812;55.188;61.302;2023-04-25T14:18:59;27.85;15.69
74376;HTU21D;62812;55.188;61.302;2023-04-25T14:21:43;27.56;15.97
74376;HTU21D;62812;55.188;61.302;2023-04-25T14:24:10;27.43;16.08
74376;HTU21D;62812;55.188;61.302;2023-04-25T17:15:58;21.61;19.94
74376;HTU21D;62812;55.188;61.302;2023-04-25T17:18:33;21.43;20.25
74376;HTU21D;62812;55.188;61.302;2023-04-25T17:27:16;20.72;23.03
74376;HTU21D;62812;55.188;61.302;2023-04-25T17:29:48;20.42;23.75
74376;HTU21D;62812;55.188;61.302;2023-04-25T17:39:17;19.50;25.08
74376;HTU21D;62812;55.188;61.302;2023-04-25T17:41:50;19.35;25.67
74376;HTU21D;62812;55.188;61.302;2023-04-25T17:45:02;19.24;26.52
74376;HTU21D;62812;55.188;61.302;2023-04-25T17:47:59;19.10;27.04
74376;HTU21D;62812;55.188;61.302;2023-04-25T18:03:39;18.69;27.99
74376;HTU21D;62812;55.188;61.302;2023-04-25T18:06:12;18.63;28.48
74376;HTU21D;62812;55.188;61.302;2023-04-25T18:08:46;18.56;29.03
74376;HTU21D;62812;55.188;61.302;2023-04-25T18:11:19;18.52;29.29
74376;HTU21D;62812;55.188;61.302;2023-04-25T18:17:11;18.27;30.40
74376;HTU21D;62812;55.188;61.302;2023-04-25T18:19:43;18.18;31.22
74376;HTU21D;62812;55.188;61.302;2023-04-25T18:22:15;18.12;31.12
74376;HTU21D;62812;55.188;61.302;2023-04-25T18:24:50;18.06;29.86
74376;HTU21D;62812;55.188;61.302;2023-04-25T18:27:41;17.92;30.64
74376;HTU21D;62812;55.188;61.302;2023-04-25T18:30:11;17.87;31.55
74376;HTU21D;62812;55.188;61.302;2023-04-25T18:32:50;17.76;31.64
74376;HTU21D;62812;55.188;61.302;2023-04-25T18:35:29;17.68;32.35
74376;HTU21D;62812;55.188;61.302;2023-04-25T18:38:00;17.56;32.74
74376;HTU21D;62812;55.188;61.302;2023-04-25T18:40:30;17.47;33.25
74376;HTU21D;62812;55.188;61.302;2023-04-25T18:43:01;17.30;34.02
74376;HTU21D;62812;55.188;61.302;2023-04-25T18:45:30;17.13;35.08
74376;HTU21D;62812;55.188;61.302;2023-04-25T18:54:19;16.70;36.04
74376;HTU21D;62812;55.188;61.302;2023-04-25T18:56:50;16.52;37.29
74376;HTU21D;62812;55.188;61.302;2023-04-25T18:59:21;16.42;36.34
74376;HTU21D;62812;55.188;61.302;2023-04-25T19:01:50;16.46;35.28
74376;HTU21D;62812;55.188;61.302;2023-04-25T19:04:19;16.48;35.18
74376;HTU21D;62812;55.188;61.302;2023-04-25T19:06:54;16.36;35.50
74376;HTU21D;62812;55.188;61.302;2023-04-25T19:09:31;16.21;35.26
74376;HTU21D;62812;55.188;61.302;2023-04-25T19:12:03;16.01;35.91
74376;HTU21D;62812;55.188;61.302;2023-04-25T19:14:32;16.14;37.16
74376;HTU21D;62812;55.188;61.302;2023-04-25T19:17:03;16.24;35.82
74376;HTU21D;62812;55.188;61.302;2023-04-25T19:19:32;16.30;35.21
74376;HTU21D;62812;55.188;61.302;2023-04-25T19:22:01;16.25;35.82
74376;HTU21D;62812;55.188;61.302;2023-04-25T19:24:29;16.18;35.63
74376;HTU21D;62812;55.188;61.302;2023-04-25T19:26:56;16.14;35.18
74376;HTU21D;62812;55.188;61.302;2023-04-25T19:29:24;16.34;37.51
74376;HTU21D;62812;55.188;61.302;2023-04-25T19:31:52;16.44;35.08
74376;HTU21D;62812;55.188;61.302;2023-04-25T19:34:22;16.33;35.42
74376;HTU21D;62812;55.188;61.302;2023-04-25T19:36:49;16.25;35.91
74376;HTU21D;62812;55.188;61.302;2023-04-25T19:39:21;16.19;35.90
74376;HTU21D;62812;55.188;61.302;2023-04-25T19:41:50;16.06;36.04
74376;HTU21D;62812;55.188;61.302;2023-04-25T19:44:17;15.93;36.37
74376;HTU21D;62812;55.188;61.302;2023-04-25T19:46:46;15.86;36.86
74376;HTU21D;62812;55.188;61.302;2023-04-25T19:49:15;15.85;36.55
74376;HTU21D;62812;55.188;61.302;2023-04-25T19:51:58;15.78;36.11
74376;HTU21D;62812;55.188;61.302;2023-04-25T19:54:31;15.71;36.35
74376;HTU21D;62812;55.188;61.302;2023-04-25T19:56:59;15.65;37.27
74376;HTU21D;62812;55.188;61.302;2023-04-25T19:59:26;15.90;38.53
74376;HTU21D;62812;55.188;61.302;2023-04-25T20:01:53;15.78;37.71
74376;HTU21D;62812;55.188;61.302;2023-04-25T20:04:21;15.61;37.86
74376;HTU21D;62812;55.188;61.302;2023-04-25T20:06:50;15.55;37.67
74376;HTU21D;62812;55.188;61.302;2023-04-25T20:09:17;15.45;38.27
74376;HTU21D;62812;55.188;61.302;2023-04-25T20:11:48;15.33;38.36
74376;HTU21D;62812;55.188;61.302;2023-04-25T20:14:16;15.25;39.36
74376;HTU21D;62812;55.188;61.302;2023-04-25T20:16:43;15.19;39.75
74376;HTU21D;62812;55.188;61.302;2023-04-25T20:19:10;15.16;39.67
74376;HTU21D;62812;55.188;61.302;2023-04-25T20:21:37;15.04;40.26
74376;HTU21D;62812;55.188;61.302;2023-04-25T20:24:05;14.99;40.24
74376;HTU21D;62812;55.188;61.302;2023-04-25T20:26:33;14.95;40.94
74376;HTU21D;62812;55.188;61.302;2023-04-25T20:29:06;14.92;40.14
74376;HTU21D;62812;55.188;61.302;2023-04-25T20:31:35;14.89;39.92
74376;HTU21D;62812;55.188;61.302;2023-04-25T20:34:03;14.83;39.95
74376;HTU21D;62812;55.188;61.302;2023-04-25T20:36:29;14.80;40.26
74376;HTU21D;62812;55.188;61.302;2023-04-25T20:38:58;14.74;40.59
74376;HTU21D;62812;55.188;61.302;2023-04-25T20:41:25;14.78;41.02
74376;HTU21D;62812;55.188;61.302;2023-04-25T20:43:52;14.83;40.54
74376;HTU21D;62812;55.188;61.302;2023-04-25T20:46:21;14.81;40.51
74376;HTU21D;62812;55.188;61.302;2023-04-25T20:48:49;14.83;40.94
74376;HTU21D;62812;55.188;61.302;2023-04-25T20:51:18;14.82;40.73
74376;HTU21D;62812;55.188;61.302;2023-04-25T20:53:45;14.84;40.07
74376;HTU21D;62812;55.188;61.302;2023-04-25T20:56:13;14.82;39.96
74376;HTU21D;62812;55.188;61.302;2023-04-25T20:58:40;14.71;40.88
74376;HTU21D;62812;55.188;61.302;2023-04-25T21:01:08;14.65;40.52
74376;HTU21D;62812;55.188;61.302;2023-04-25T21:03:37;14.65;40.83
74376;HTU21D;62812;55.188;61.302;2023-04-25T21:06:05;14.68;40.52
74376;HTU21D;62812;55.188;61.302;2023-04-25T21:08:33;14.69;40.01
74376;HTU21D;62812;55.188;61.302;2023-04-25T21:11:02;14.68;40.09
74376;HTU21D;62812;55.188;61.302;2023-04-25T21:13:29;14.77;40.05
74376;HTU21D;62812;55.188;61.302;2023-04-25T21:15:57;14.70;40.61
74376;HTU21D;62812;55.188;61.302;2023-04-25T21:18:25;14.59;40.37
74376;HTU21D;62812;55.188;61.302;2023-04-25T21:20:54;14.51;40.67
74376;HTU21D;62812;55.188;61.302;2023-04-25T21:23:21;14.52;39.94
74376;HTU21D;62812;55.188;61.302;2023-04-25T21:25:48;14.60;39.48
74376;HTU21D;62812;55.188;61.302;2023-04-25T21:28:17;14.71;39.91
74376;HTU21D;62812;55.188;61.302;2023-04-25T21:30:45;14.77;38.86
74376;HTU21D;62812;55.188;61.302;2023-04-25T21:33:12;14.74;38.55
74376;HTU21D;62812;55.188;61.302;2023-04-25T21:35:40;14.73;39.08
74376;HTU21D;62812;55.188;61.302;2023-04-25T21:38:10;14.77;38.54
74376;HTU21D;62812;55.188;61.302;2023-04-25T21:40:39;14.74;39.94
74376;HTU21D;62812;55.188;61.302;2023-04-25T21:43:06;14.79;38.98
74376;HTU21D;62812;55.188;61.302;2023-04-25T21:45:33;14.80;38.24
74376;HTU21D;62812;55.188;61.302;2023-04-25T21:48:01;14.78;37.91
74376;HTU21D;62812;55.188;61.302;2023-04-25T21:50:28;14.70;38.50
74376;HTU21D;62812;55.188;61.302;2023-04-25T21:52:55;14.64;39.30
74376;HTU21D;62812;55.188;61.302;2023-04-25T21:55:26;14.64;39.59
74376;HTU21D;62812;55.188;61.302;2023-04-25T21:57:53;14.70;39.16
74376;HTU21D;62812;55.188;61.302;2023-04-25T22:00:22;14.64;39.10
74376;HTU21D;62812;55.188;61.302;2023-04-25T22:02:53;14.55;39.85
74376;HTU21D;62812;55.188;61.302;2023-04-25T22:08:11;14.52;39.26
74376;HTU21D;62812;55.188;61.302;2023-04-25T22:10:41;14.45;39.49
74376;HTU21D;62812;55.188;61.302;2023-04-25T22:13:10;14.40;39.57
74376;HTU21D;62812;55.188;61.302;2023-04-25T22:15:37;14.47;39.13
74376;HTU21D;62812;55.188;61.302;2023-04-25T22:18:04;14.43;40.15
74376;HTU21D;62812;55.188;61.302;2023-04-25T22:20:32;14.37;39.82
74376;HTU21D;62812;55.188;61.302;2023-04-25T22:23:00;14.40;39.43
74376;HTU21D;62812;55.188;61.302;2023-04-25T22:25:27;14.59;40.70
74376;HTU21D;62812;55.188;61.302;2023-04-25T22:27:59;14.60;40.26
74376;HTU21D;62812;55.188;61.302;2023-04-25T22:30:26;14.57;40.33
74376;HTU21D;62812;55.188;61.302;2023-04-25T22:32:54;14.49;40.75
74376;HTU21D;62812;55.188;61.302;2023-04-25T22:35:22;14.32;40.51
74376;HTU21D;62812;55.188;61.302;2023-04-25T22:37:49;14.21;41.25
74376;HTU21D;62812;55.188;61.302;2023-04-25T22:40:16;14.13;41.23
74376;HTU21D;62812;55.188;61.302;2023-04-25T22:42:44;14.10;40.75
74376;HTU21D;62812;55.188;61.302;2023-04-25T22:45:12;14.07;41.23
74376;HTU21D;62812;55.188;61.302;2023-04-25T22:47:40;13.98;42.07
74376;HTU21D;62812;55.188;61.302;2023-04-25T22:50:08;13.99;41.87
74376;HTU21D;62812;55.188;61.302;2023-04-25T22:52:39;14.14;42.03
74376;HTU21D;62812;55.188;61.302;2023-04-25T22:55:08;14.14;42.68
74376;HTU21D;62812;55.188;61.302;2023-04-25T22:57:36;14.00;43.28
74376;HTU21D;62812;55.188;61.302;2023-04-25T23:00:09;13.79;43.74
74376;HTU21D;62812;55.188;61.302;2023-04-25T23:02:47;13.60;44.54
74376;HTU21D;62812;55.188;61.302;2023-04-25T23:05:15;13.47;44.90
74376;HTU21D;62812;55.188;61.302;2023-04-25T23:07:42;13.38;44.38
74376;HTU21D;62812;55.188;61.302;2023-04-25T23:10:12;13.27;44.01
74376;HTU21D;62812;55.188;61.302;2023-04-25T23:12:40;13.17;44.66
74376;HTU21D;62812;55.188;61.302;2023-04-25T23:15:08;13.07;45.41
74376;HTU21D;62812;55.188;61.302;2023-04-25T23:17:35;13.00;45.71
74376;HTU21D;62812;55.188;61.302;2023-04-25T23:20:06;12.91;45.90
74376;HTU21D;62812;55.188;61.302;2023-04-25T23:22:36;12.95;46.09
74376;HTU21D;62812;55.188;61.302;2023-04-25T23:25:05;12.94;46.75
74376;HTU21D;62812;55.188;61.302;2023-04-25T23:27:32;13.10;45.66
74376;HTU21D;62812;55.188;61.302;2023-04-25T23:30:00;13.31;45.55
74376;HTU21D;62812;55.188;61.302;2023-04-25T23:32:27;13.54;44.65
74376;HTU21D;62812;55.188;61.302;2023-04-25T23:34:55;13.60;44.92
74376;HTU21D;62812;55.188;61.302;2023-04-25T23:37:23;13.52;45.09
74376;HTU21D;62812;55.188;61.302;2023-04-25T23:39:51;13.40;45.29
74376;HTU21D;62812;55.188;61.302;2023-04-25T23:42:18;13.24;45.77
74376;HTU21D;62812;55.188;61.302;2023-04-25T23:44:45;13.11;45.91
74376;HTU21D;62812;55.188;61.302;2023-04-25T23:47:12;12.96;46.33
74376;HTU21D;62812;55.188;61.302;2023-04-25T23:49:43;13.01;46.08
74376;HTU21D;62812;55.188;61.302;2023-04-25T23:52:09;13.03;46.75
74376;HTU21D;62812;55.188;61.302;2023-04-25T23:54:38;13.04;46.40
74376;HTU21D;62812;55.188;61.302;2023-04-25T23:57:05;12.95;46.15
74376;HTU21D;62812;55.188;61.302;2023-04-25T23:59:32;12.85;46.31
